createdAt,value
2023-02-08T00:00:30.032Z,72.77
2023-02-08T00:01:30.023Z,72.87
2023-02-08T00:02:30.037Z,73.08
2023-02-08T00:03:30.006Z,72.87
2023-02-08T00:04:30.000Z,72.98
2023-02-08T00:05:29.980Z,73.08
2023-02-08T00:06:29.971Z,73.08
2023-02-08T00:07:29.962Z,73.08
2023-02-08T00:08:29.942Z,73.33
2023-02-08T00:09:29.963Z,73.50
2023-02-08T00:10:29.934Z,73.61
2023-02-08T00:11:29.923Z,73.50
2023-02-08T00:12:29.921Z,73.19
2023-02-08T00:13:29.902Z,73.19
2023-02-08T00:14:29.897Z,73.08
2023-02-08T00:15:29.905Z,72.98
2023-02-08T00:16:29.868Z,73.08
2023-02-08T00:17:29.864Z,73.19
2023-02-08T00:18:29.871Z,72.98
2023-02-08T00:19:29.845Z,73.08
2023-02-08T00:20:29.858Z,72.98
2023-02-08T00:21:29.823Z,73.08
2023-02-08T00:22:29.807Z,73.19
2023-02-08T00:23:29.813Z,73.08
2023-02-08T00:24:29.790Z,73.08
2023-02-08T00:25:29.809Z,72.87
2023-02-08T00:26:29.783Z,72.98
2023-02-08T00:27:29.758Z,73.08
2023-02-08T00:28:29.775Z,73.08
2023-02-08T00:29:29.737Z,72.98
2023-02-08T00:30:29.746Z,73.22
2023-02-08T00:31:29.795Z,73.43
2023-02-08T00:32:29.717Z,73.33
2023-02-08T00:33:29.698Z,73.54
2023-02-08T00:34:29.692Z,73.64
2023-02-08T00:35:29.695Z,73.43
2023-02-08T00:36:29.661Z,73.33
2023-02-08T00:37:29.661Z,73.33
2023-02-08T00:38:29.654Z,73.33
2023-02-08T00:39:29.642Z,73.43
2023-02-08T00:40:29.646Z,73.43
2023-02-08T00:41:29.615Z,73.54
2023-02-08T00:42:29.602Z,73.54
2023-02-08T00:43:29.600Z,73.74
2023-02-08T00:44:29.584Z,73.54
2023-02-08T00:45:29.595Z,73.33
2023-02-08T00:46:29.595Z,73.33
2023-02-08T00:47:29.580Z,73.33
2023-02-08T00:48:29.572Z,73.22
2023-02-08T00:49:29.540Z,73.11
2023-02-08T00:50:29.551Z,73.01
2023-02-08T00:51:29.516Z,73.22
2023-02-08T00:52:29.503Z,73.43
2023-02-08T00:53:29.517Z,73.74
2023-02-08T00:54:29.478Z,73.64
2023-02-08T00:55:29.506Z,73.54
2023-02-08T00:56:29.497Z,73.43
2023-02-08T00:57:29.470Z,73.54
2023-02-08T00:58:29.448Z,73.43
2023-02-08T00:59:29.437Z,73.33
2023-02-08T01:00:29.466Z,73.36
2023-02-08T01:01:29.416Z,73.46
2023-02-08T01:02:29.408Z,73.57
2023-02-08T01:03:29.392Z,73.57
2023-02-08T01:04:29.400Z,73.57
2023-02-08T01:05:29.403Z,73.64
2023-02-08T01:06:29.369Z,73.54
2023-02-08T01:07:29.359Z,73.46
2023-02-08T01:08:29.340Z,73.57
2023-02-08T01:09:29.333Z,73.78
2023-02-08T01:10:29.336Z,73.78
2023-02-08T01:11:29.328Z,73.78
2023-02-08T01:12:29.303Z,73.57
2023-02-08T01:13:29.294Z,73.68
2023-02-08T01:14:29.281Z,73.78
2023-02-08T01:15:29.293Z,73.57
2023-02-08T01:16:29.291Z,73.46
2023-02-08T01:17:29.253Z,73.46
2023-02-08T01:18:29.250Z,73.57
2023-02-08T01:19:29.237Z,73.68
2023-02-08T01:20:29.233Z,73.68
2023-02-08T01:21:29.218Z,73.88
2023-02-08T01:22:29.216Z,73.78
2023-02-08T01:23:29.210Z,73.78
2023-02-08T01:24:29.174Z,73.78
2023-02-08T01:25:29.205Z,73.99
2023-02-08T01:26:29.156Z,74.20
2023-02-08T01:27:29.149Z,74.41
2023-02-08T01:28:29.135Z,74.20
2023-02-08T01:29:29.135Z,73.99
2023-02-08T01:30:29.166Z,73.78
2023-02-08T01:31:29.202Z,73.88
2023-02-08T01:32:29.097Z,74.09
2023-02-08T01:33:29.087Z,73.99
2023-02-08T01:34:29.076Z,73.88
2023-02-08T01:35:29.088Z,73.57
2023-02-08T01:36:29.057Z,73.57
2023-02-08T01:37:29.049Z,73.68
2023-02-08T01:38:29.036Z,73.68
2023-02-08T01:39:29.035Z,73.78
2023-02-08T01:40:29.036Z,73.78
2023-02-08T01:41:29.016Z,73.78
2023-02-08T01:42:29.027Z,73.78
2023-02-08T01:43:28.998Z,73.68
2023-02-08T01:44:28.975Z,73.81
2023-02-08T01:45:29.020Z,73.88
2023-02-08T01:46:28.959Z,73.68
2023-02-08T01:47:28.952Z,73.60
2023-02-08T01:48:28.942Z,73.71
2023-02-08T01:49:28.929Z,73.71
2023-02-08T01:50:28.937Z,73.60
2023-02-08T01:51:28.907Z,73.50
2023-02-08T01:52:28.922Z,73.81
2023-02-08T01:53:28.890Z,74.13
2023-02-08T01:54:28.883Z,74.33
2023-02-08T01:55:28.889Z,74.23
2023-02-08T01:56:28.858Z,74.37
2023-02-08T01:57:28.851Z,74.58
2023-02-08T01:58:28.840Z,74.68
2023-02-08T01:59:28.831Z,74.90
2023-02-08T02:00:28.823Z,74.90
2023-02-08T02:01:28.865Z,74.90
2023-02-08T02:02:28.811Z,74.90
2023-02-08T02:03:28.791Z,74.90
2023-02-08T02:04:28.821Z,74.90
2023-02-08T02:05:28.780Z,74.68
2023-02-08T02:06:28.783Z,74.58
2023-02-08T02:07:28.774Z,74.37
2023-02-08T02:08:28.732Z,74.48
2023-02-08T02:09:28.731Z,74.23
2023-02-08T02:10:28.721Z,74.05
2023-02-08T02:11:28.723Z,73.95
2023-02-08T02:12:28.702Z,74.05
2023-02-08T02:13:28.684Z,74.16
2023-02-08T02:14:28.673Z,74.16
2023-02-08T02:15:28.663Z,74.05
2023-02-08T02:16:28.728Z,74.05
2023-02-08T02:17:28.663Z,73.95
2023-02-08T02:18:28.634Z,73.63
2023-02-08T02:19:28.628Z,73.43
2023-02-08T02:20:28.614Z,73.43
2023-02-08T02:21:28.632Z,73.32
2023-02-08T02:22:28.673Z,73.43
2023-02-08T02:23:28.605Z,73.43
2023-02-08T02:24:28.575Z,73.32
2023-02-08T02:25:28.576Z,73.32
2023-02-08T02:26:28.570Z,73.53
2023-02-08T02:27:28.546Z,73.74
2023-02-08T02:28:28.536Z,73.74
2023-02-08T02:29:28.537Z,73.63
2023-02-08T02:30:28.542Z,73.74
2023-02-08T02:31:28.536Z,73.88
2023-02-08T02:32:28.494Z,73.99
2023-02-08T02:33:28.492Z,73.99
2023-02-08T02:34:28.477Z,73.99
2023-02-08T02:35:28.468Z,74.19
2023-02-08T02:36:28.481Z,74.30
2023-02-08T02:37:28.452Z,74.27
2023-02-08T02:38:30.424Z,74.09
2023-02-08T02:39:28.427Z,74.09
2023-02-08T02:40:28.407Z,73.99
2023-02-08T02:41:28.427Z,74.09
2023-02-08T02:42:28.392Z,74.30
2023-02-08T02:43:28.408Z,74.19
2023-02-08T02:44:28.493Z,73.99
2023-02-08T02:45:28.411Z,74.09
2023-02-08T02:46:28.427Z,74.19
2023-02-08T02:47:28.365Z,74.19
2023-02-08T02:48:28.391Z,74.30
2023-02-08T02:49:28.347Z,74.40
2023-02-08T02:50:28.346Z,74.40
2023-02-08T02:51:28.331Z,74.40
2023-02-08T02:52:28.326Z,74.40
2023-02-08T02:53:28.309Z,74.30
2023-02-08T02:54:28.307Z,74.19
2023-02-08T02:55:28.277Z,74.19
2023-02-08T02:56:28.304Z,73.99
2023-02-08T02:57:28.260Z,73.88
2023-02-08T02:58:28.246Z,73.77
2023-02-08T02:59:28.238Z,73.77
2023-02-08T03:00:28.218Z,73.88
2023-02-08T03:01:28.275Z,73.88
2023-02-08T03:02:28.201Z,73.99
2023-02-08T03:03:28.191Z,73.99
2023-02-08T03:04:28.215Z,74.19
2023-02-08T03:05:28.180Z,74.40
2023-02-08T03:06:28.182Z,74.30
2023-02-08T03:07:28.152Z,74.19
2023-02-08T03:08:28.145Z,74.09
2023-02-08T03:09:28.131Z,74.19
2023-02-08T03:10:28.131Z,74.19
2023-02-08T03:11:28.126Z,74.19
2023-02-08T03:12:28.109Z,74.19
2023-02-08T03:13:28.094Z,74.40
2023-02-08T03:14:28.086Z,74.40
2023-02-08T03:15:28.069Z,74.33
2023-02-08T03:16:28.090Z,74.51
2023-02-08T03:17:28.043Z,74.40
2023-02-08T03:18:28.048Z,74.54
2023-02-08T03:19:28.024Z,74.54
2023-02-08T03:20:28.023Z,74.54
2023-02-08T03:21:28.028Z,74.65
2023-02-08T03:22:28.005Z,74.62
2023-02-08T03:23:27.994Z,74.44
2023-02-08T03:24:27.990Z,74.54
2023-02-08T03:25:27.977Z,74.65
2023-02-08T03:26:27.979Z,74.62
2023-02-08T03:27:27.946Z,74.54
2023-02-08T03:28:27.936Z,74.65
2023-02-08T03:29:27.927Z,74.65
2023-02-08T03:30:27.958Z,74.54
2023-02-08T03:31:28.016Z,74.44
2023-02-08T03:32:27.909Z,74.86
2023-02-08T03:33:27.897Z,74.86
2023-02-08T03:34:27.877Z,75.17
2023-02-08T03:35:28.609Z,75.17
2023-02-08T03:36:27.894Z,75.07
2023-02-08T03:37:27.857Z,75.17
2023-02-08T03:38:27.838Z,75.28
2023-02-08T03:39:27.820Z,75.28
2023-02-08T03:40:27.846Z,75.38
2023-02-08T03:41:27.840Z,75.59
2023-02-08T03:42:27.799Z,75.38
2023-02-08T03:43:27.792Z,75.17
2023-02-08T03:44:27.801Z,75.21
2023-02-08T03:45:27.764Z,75.21
2023-02-08T03:46:27.844Z,75.31
2023-02-08T03:47:27.742Z,75.52
2023-02-08T03:48:27.745Z,75.52
2023-02-08T03:49:27.732Z,75.63
2023-02-08T03:50:27.722Z,75.52
2023-02-08T03:51:27.731Z,75.42
2023-02-08T03:52:27.703Z,75.42
2023-02-08T03:53:27.683Z,75.52
2023-02-08T03:54:27.673Z,75.84
2023-02-08T03:55:27.673Z,75.95
2023-02-08T03:56:27.702Z,75.84
2023-02-08T03:57:27.645Z,75.52
2023-02-08T03:58:27.632Z,75.17
2023-02-08T03:59:27.625Z,75.07
2023-02-08T04:00:27.619Z,74.65
2023-02-08T04:01:27.663Z,74.65
2023-02-08T04:02:27.627Z,74.54
2023-02-08T04:03:27.582Z,74.65
2023-02-08T04:04:27.602Z,74.65
2023-02-08T04:05:27.557Z,74.54
2023-02-08T04:06:27.584Z,74.44
2023-02-08T04:07:27.544Z,74.58
2023-02-08T04:08:27.544Z,74.65
2023-02-08T04:09:27.521Z,74.44
2023-02-08T04:10:27.510Z,74.44
2023-02-08T04:11:27.522Z,74.33
2023-02-08T04:12:27.494Z,74.22
2023-02-08T04:13:27.485Z,74.22
2023-02-08T04:14:27.471Z,74.22
2023-02-08T04:15:27.465Z,74.37
2023-02-08T04:16:27.471Z,74.37
2023-02-08T04:17:27.443Z,74.47
2023-02-08T04:18:27.440Z,74.58
2023-02-08T04:19:27.427Z,74.79
2023-02-08T04:20:27.414Z,74.68
2023-02-08T04:21:27.431Z,74.58
2023-02-08T04:22:27.392Z,74.58
2023-02-08T04:23:27.383Z,74.47
2023-02-08T04:24:27.379Z,74.47
2023-02-08T04:25:27.359Z,74.68
2023-02-08T04:26:27.374Z,74.68
2023-02-08T04:27:27.346Z,74.37
2023-02-08T04:28:27.348Z,74.16
2023-02-08T04:29:27.317Z,74.26
2023-02-08T04:30:27.410Z,74.26
2023-02-08T04:31:27.471Z,73.94
2023-02-08T04:32:27.296Z,73.84
2023-02-08T04:33:27.289Z,73.84
2023-02-08T04:34:27.280Z,73.94
2023-02-08T04:35:27.262Z,73.94
2023-02-08T04:36:27.307Z,73.94
2023-02-08T04:37:27.250Z,73.84
2023-02-08T04:38:27.241Z,73.84
2023-02-08T04:39:27.219Z,74.05
2023-02-08T04:40:27.212Z,74.26
2023-02-08T04:41:27.212Z,74.37
2023-02-08T04:42:27.193Z,74.47
2023-02-08T04:43:27.184Z,74.68
2023-02-08T04:44:27.185Z,74.79
2023-02-08T04:45:27.193Z,74.89
2023-02-08T04:46:27.206Z,74.58
2023-02-08T04:47:27.143Z,74.58
2023-02-08T04:48:27.136Z,74.58
2023-02-08T04:49:27.127Z,74.37
2023-02-08T04:50:27.114Z,74.58
2023-02-08T04:51:27.132Z,74.82
2023-02-08T04:52:27.095Z,74.82
2023-02-08T04:53:27.076Z,74.93
2023-02-08T04:54:27.073Z,75.13
2023-02-08T04:55:27.057Z,75.13
2023-02-08T04:56:27.063Z,74.93
2023-02-08T04:57:27.058Z,74.93
2023-02-08T04:58:27.038Z,74.58
2023-02-08T04:59:27.020Z,74.37
2023-02-08T05:00:27.027Z,74.26
2023-02-08T05:01:27.032Z,74.26
2023-02-08T05:02:27.025Z,74.40
2023-02-08T05:03:26.980Z,74.51
2023-02-08T05:04:26.978Z,74.16
2023-02-08T05:05:26.956Z,74.16
2023-02-08T05:06:27.034Z,74.16
2023-02-08T05:07:26.956Z,74.26
2023-02-08T05:08:26.929Z,74.19
2023-02-08T05:09:26.917Z,74.19
2023-02-08T05:10:26.917Z,74.05
2023-02-08T05:11:26.895Z,73.94
2023-02-08T05:12:26.907Z,73.94
2023-02-08T05:13:26.881Z,74.26
2023-02-08T05:14:26.867Z,74.37
2023-02-08T05:15:26.863Z,74.29
2023-02-08T05:16:26.849Z,74.40
2023-02-08T05:17:26.855Z,74.51
2023-02-08T05:18:26.827Z,74.37
2023-02-08T05:19:26.816Z,74.16
2023-02-08T05:20:26.823Z,74.05
2023-02-08T05:21:26.796Z,74.08
2023-02-08T05:22:26.856Z,74.08
2023-02-08T05:23:26.784Z,74.19
2023-02-08T05:24:26.788Z,74.19
2023-02-08T05:25:26.745Z,74.40
2023-02-08T05:26:26.766Z,74.51
2023-02-08T05:27:26.764Z,74.65
2023-02-08T05:28:26.821Z,74.82
2023-02-08T05:29:26.708Z,74.71
2023-02-08T05:30:26.721Z,74.61
2023-02-08T05:31:26.807Z,74.29
2023-02-08T05:32:26.715Z,74.19
2023-02-08T05:33:26.691Z,74.19
2023-02-08T05:34:26.678Z,74.29
2023-02-08T05:35:26.657Z,74.19
2023-02-08T05:36:26.650Z,74.19
2023-02-08T05:37:26.655Z,74.19
2023-02-08T05:38:26.628Z,74.19
2023-02-08T05:39:26.617Z,74.40
2023-02-08T05:40:26.615Z,74.19
2023-02-08T05:41:26.607Z,74.29
2023-02-08T05:42:26.598Z,74.29
2023-02-08T05:43:26.575Z,74.29
2023-02-08T05:44:26.566Z,74.29
2023-02-08T05:45:26.548Z,74.29
2023-02-08T05:46:26.604Z,74.40
2023-02-08T05:47:26.546Z,74.51
2023-02-08T05:48:26.525Z,74.54
2023-02-08T05:49:26.510Z,74.54
2023-02-08T05:50:26.511Z,74.65
2023-02-08T05:51:26.492Z,74.85
2023-02-08T05:52:26.503Z,74.96
2023-02-08T05:53:26.486Z,74.82
2023-02-08T05:54:26.476Z,74.51
2023-02-08T05:55:26.467Z,74.51
2023-02-08T05:56:26.452Z,74.29
2023-02-08T05:57:26.609Z,74.43
2023-02-08T05:58:26.466Z,74.43
2023-02-08T05:59:26.408Z,74.54
2023-02-08T06:00:26.416Z,74.43
2023-02-08T06:01:26.397Z,74.43
2023-02-08T06:02:26.419Z,74.43
2023-02-08T06:03:26.379Z,74.43
2023-02-08T06:04:26.448Z,74.43
2023-02-08T06:05:26.357Z,74.33
2023-02-08T06:06:26.347Z,74.43
2023-02-08T06:07:26.350Z,74.65
2023-02-08T06:08:26.323Z,74.75
2023-02-08T06:09:26.313Z,74.96
2023-02-08T06:10:26.311Z,75.07
2023-02-08T06:11:26.303Z,75.07
2023-02-08T06:12:26.314Z,74.85
2023-02-08T06:13:26.269Z,74.96
2023-02-08T06:14:26.267Z,74.71
2023-02-08T06:15:26.294Z,74.61
2023-02-08T06:16:26.288Z,74.51
2023-02-08T06:17:26.250Z,74.40
2023-02-08T06:18:26.226Z,74.40
2023-02-08T06:19:26.201Z,74.51
2023-02-08T06:20:26.200Z,74.51
2023-02-08T06:21:26.182Z,74.65
2023-02-08T06:22:26.209Z,74.54
2023-02-08T06:23:26.178Z,74.33
2023-02-08T06:24:26.162Z,74.33
2023-02-08T06:25:26.149Z,74.33
2023-02-08T06:26:26.143Z,74.33
2023-02-08T06:27:26.115Z,74.33
2023-02-08T06:28:26.186Z,74.54
2023-02-08T06:29:26.111Z,74.75
2023-02-08T06:30:26.118Z,74.96
2023-02-08T06:31:26.094Z,75.42
2023-02-08T06:32:26.138Z,75.63
2023-02-08T06:33:26.081Z,75.73
2023-02-08T06:34:26.065Z,75.84
2023-02-08T06:35:26.006Z,75.94
2023-02-08T06:36:26.077Z,76.05
2023-02-08T06:37:26.052Z,76.15
2023-02-08T06:38:26.023Z,76.05
2023-02-08T06:39:26.006Z,75.94
2023-02-08T06:40:25.960Z,75.94
2023-02-08T06:41:25.938Z,75.63
2023-02-08T06:42:25.947Z,75.27
2023-02-08T06:43:25.923Z,75.07
2023-02-08T06:44:25.922Z,75.07
2023-02-08T06:45:25.900Z,75.10
2023-02-08T06:46:25.889Z,75.21
2023-02-08T06:47:25.889Z,75.42
2023-02-08T06:48:25.899Z,75.52
2023-02-08T06:49:25.848Z,76.08
2023-02-08T06:50:25.848Z,76.82
2023-02-08T06:51:25.837Z,77.38
2023-02-08T06:52:25.849Z,77.91
2023-02-08T06:53:25.828Z,78.33
2023-02-08T06:54:25.809Z,78.64
2023-02-08T06:55:25.825Z,78.96
2023-02-08T06:56:25.793Z,79.17
2023-02-08T06:57:25.790Z,79.17
2023-02-08T06:58:25.772Z,79.07
2023-02-08T06:59:25.760Z,79.17
2023-02-08T07:00:25.780Z,79.38
2023-02-08T07:01:25.772Z,79.35
2023-02-08T07:02:25.780Z,79.03
2023-02-08T07:03:25.733Z,78.82
2023-02-08T07:04:25.714Z,78.92
2023-02-08T07:05:25.702Z,78.82
2023-02-08T07:06:25.702Z,78.30
2023-02-08T07:07:25.692Z,78.16
2023-02-08T07:08:25.671Z,78.08
2023-02-08T07:09:25.655Z,77.98
2023-02-08T07:10:25.651Z,77.94
2023-02-08T07:11:25.634Z,77.84
2023-02-08T07:12:25.653Z,77.73
2023-02-08T07:13:25.632Z,77.31
2023-02-08T07:14:25.616Z,77.20
2023-02-08T07:15:25.635Z,77.31
2023-02-08T07:16:25.632Z,77.42
2023-02-08T07:17:25.607Z,77.63
2023-02-08T07:18:25.577Z,77.94
2023-02-08T07:19:25.565Z,78.05
2023-02-08T07:20:25.547Z,78.16
2023-02-08T07:21:25.546Z,78.26
2023-02-08T07:22:25.557Z,78.47
2023-02-08T07:23:25.521Z,78.36
2023-02-08T07:24:25.506Z,78.26
2023-02-08T07:25:25.534Z,78.05
2023-02-08T07:26:25.493Z,77.70
2023-02-08T07:27:26.145Z,77.63
2023-02-08T07:28:25.530Z,77.63
2023-02-08T07:29:25.467Z,77.73
2023-02-08T07:30:25.479Z,77.59
2023-02-08T07:31:25.448Z,77.38
2023-02-08T07:32:25.448Z,77.28
2023-02-08T07:33:25.419Z,77.38
2023-02-08T07:34:25.412Z,77.70
2023-02-08T07:35:25.436Z,77.91
2023-02-08T07:36:25.388Z,78.12
2023-02-08T07:37:25.404Z,78.12
2023-02-08T07:38:25.379Z,78.22
2023-02-08T07:39:25.379Z,78.44
2023-02-08T07:40:25.356Z,78.54
2023-02-08T07:41:25.385Z,78.54
2023-02-08T07:42:25.352Z,78.44
2023-02-08T07:43:27.189Z,78.64
2023-02-08T07:44:25.319Z,78.86
2023-02-08T07:45:25.305Z,79.06
2023-02-08T07:46:25.316Z,79.17
2023-02-08T07:47:25.307Z,79.28
2023-02-08T07:48:25.273Z,79.38
2023-02-08T07:49:25.298Z,79.49
2023-02-08T07:50:25.262Z,79.24
2023-02-08T07:51:25.247Z,78.92
2023-02-08T07:52:25.256Z,78.92
2023-02-08T07:53:25.226Z,79.03
2023-02-08T07:54:25.220Z,78.92
2023-02-08T07:55:25.210Z,78.82
2023-02-08T07:56:25.187Z,78.72
2023-02-08T07:57:25.224Z,78.92
2023-02-08T07:58:25.185Z,79.14
2023-02-08T07:59:25.168Z,79.35
2023-02-08T08:00:25.148Z,79.21
2023-02-08T08:01:25.217Z,79.21
2023-02-08T08:02:25.152Z,79.63
2023-02-08T08:03:25.148Z,79.87
2023-02-08T08:04:25.116Z,80.19
2023-02-08T08:05:25.110Z,80.51
2023-02-08T08:06:25.094Z,80.82
2023-02-08T08:07:25.091Z,80.99
2023-02-08T08:08:25.101Z,81.20
2023-02-08T08:09:25.070Z,81.31
2023-02-08T08:10:25.080Z,81.52
2023-02-08T08:11:25.041Z,81.94
2023-02-08T08:12:25.853Z,82.26
2023-02-08T08:13:25.059Z,82.36
2023-02-08T08:14:25.041Z,82.36
2023-02-08T08:15:25.005Z,82.26
2023-02-08T08:16:25.020Z,82.26
2023-02-08T08:17:25.000Z,82.15
2023-02-08T08:18:24.983Z,82.04
2023-02-08T08:19:24.974Z,82.15
2023-02-08T08:20:24.976Z,82.01
2023-02-08T08:21:24.955Z,81.80
2023-02-08T08:22:24.934Z,81.70
2023-02-08T08:23:24.948Z,81.70
2023-02-08T08:24:24.926Z,81.59
2023-02-08T08:25:24.931Z,81.59
2023-02-08T08:26:24.905Z,81.48
2023-02-08T08:27:24.890Z,81.38
2023-02-08T08:28:24.958Z,81.38
2023-02-08T08:29:24.866Z,81.34
2023-02-08T08:30:24.906Z,81.13
2023-02-08T08:31:24.954Z,81.13
2023-02-08T08:32:24.826Z,81.13
2023-02-08T08:33:24.851Z,81.13
2023-02-08T08:34:24.815Z,81.13
2023-02-08T08:35:24.819Z,81.13
2023-02-08T08:36:24.786Z,81.24
2023-02-08T08:37:24.791Z,81.24
2023-02-08T08:38:24.799Z,81.34
2023-02-08T08:39:24.770Z,81.34
2023-02-08T08:40:25.290Z,81.24
2023-02-08T08:41:24.746Z,81.24
2023-02-08T08:42:24.737Z,81.20
2023-02-08T08:43:24.753Z,81.20
2023-02-08T08:44:24.730Z,81.20
2023-02-08T08:45:24.708Z,81.20
2023-02-08T08:46:24.738Z,81.09
2023-02-08T08:47:24.681Z,81.09
2023-02-08T08:48:24.689Z,81.09
2023-02-08T08:49:24.680Z,80.99
2023-02-08T08:50:24.649Z,80.88
2023-02-08T08:51:24.671Z,80.88
2023-02-08T08:52:24.650Z,80.64
2023-02-08T08:53:24.643Z,80.53
2023-02-08T08:54:24.639Z,80.64
2023-02-08T08:55:24.620Z,80.53
2023-02-08T08:56:24.590Z,80.43
2023-02-08T08:57:24.589Z,80.22
2023-02-08T08:58:24.598Z,80.22
2023-02-08T08:59:24.563Z,80.22
2023-02-08T09:00:24.562Z,80.18
2023-02-08T09:01:24.591Z,80.18
2023-02-08T09:02:24.527Z,80.18
2023-02-08T09:03:24.622Z,80.18
2023-02-08T09:04:24.510Z,80.08
2023-02-08T09:05:24.511Z,79.86
2023-02-08T09:06:24.504Z,79.76
2023-02-08T09:07:24.484Z,79.66
2023-02-08T09:08:24.498Z,79.55
2023-02-08T09:09:24.491Z,79.44
2023-02-08T09:10:24.454Z,79.44
2023-02-08T09:11:24.439Z,79.55
2023-02-08T09:12:24.439Z,79.44
2023-02-08T09:13:24.450Z,79.55
2023-02-08T09:14:24.400Z,79.76
2023-02-08T09:15:24.408Z,80.18
2023-02-08T09:16:24.446Z,80.29
2023-02-08T09:17:24.393Z,80.08
2023-02-08T09:18:24.415Z,79.97
2023-02-08T09:19:24.364Z,79.83
2023-02-08T09:20:24.385Z,79.62
2023-02-08T09:21:24.350Z,79.52
2023-02-08T09:22:24.328Z,79.52
2023-02-08T09:23:24.342Z,79.62
2023-02-08T09:24:24.417Z,79.62
2023-02-08T09:25:24.300Z,79.52
2023-02-08T09:26:24.283Z,79.20
2023-02-08T09:27:24.281Z,78.85
2023-02-08T09:28:24.330Z,78.85
2023-02-08T09:29:24.250Z,78.74
2023-02-08T09:30:24.270Z,78.74
2023-02-08T09:31:24.445Z,79.06
2023-02-08T09:32:24.224Z,79.58
2023-02-08T09:33:24.273Z,79.58
2023-02-08T09:34:24.200Z,79.58
2023-02-08T09:35:24.192Z,79.58
2023-02-08T09:36:24.196Z,79.38
2023-02-08T09:37:24.185Z,79.34
2023-02-08T09:38:24.186Z,79.34
2023-02-08T09:39:24.177Z,79.23
2023-02-08T09:40:24.145Z,79.44
2023-02-08T09:41:24.147Z,79.23
2023-02-08T09:42:24.133Z,79.13
2023-02-08T09:43:24.138Z,78.92
2023-02-08T09:44:24.101Z,78.50
2023-02-08T09:45:24.096Z,78.08
2023-02-08T09:46:24.102Z,77.97
2023-02-08T09:47:24.080Z,77.97
2023-02-08T09:48:24.079Z,77.83
2023-02-08T09:49:24.071Z,77.73
2023-02-08T09:50:24.048Z,77.62
2023-02-08T09:51:24.042Z,77.52
2023-02-08T09:52:24.023Z,77.52
2023-02-08T09:53:24.068Z,77.52
2023-02-08T09:54:24.047Z,78.05
2023-02-08T09:55:24.004Z,78.78
2023-02-08T09:56:24.037Z,79.09
2023-02-08T09:57:23.974Z,79.30
2023-02-08T09:58:23.983Z,79.16
2023-02-08T09:59:23.965Z,78.95
2023-02-08T10:00:23.990Z,78.01
2023-02-08T10:01:23.943Z,77.38
2023-02-08T10:02:23.927Z,77.03
2023-02-08T10:03:23.959Z,77.03
2023-02-08T10:04:23.921Z,77.45
2023-02-08T10:05:23.905Z,77.87
2023-02-08T10:06:23.898Z,78.18
2023-02-08T10:07:23.885Z,77.87
2023-02-08T10:08:31.530Z,77.45
2023-02-08T10:09:24.868Z,77.34
2023-02-08T10:10:23.856Z,76.61
2023-02-08T10:11:23.837Z,75.95
2023-02-08T10:12:23.820Z,75.63
2023-02-08T10:13:33.013Z,75.84
2023-02-08T10:14:24.807Z,75.84
2023-02-08T10:15:23.799Z,75.95
2023-02-08T10:16:23.823Z,75.74
2023-02-08T10:17:23.777Z,74.90
2023-02-08T10:18:23.819Z,74.38
2023-02-08T10:19:23.755Z,74.24
2023-02-08T10:20:23.739Z,74.35
2023-02-08T10:21:23.738Z,74.55
2023-02-08T10:22:23.718Z,74.76
2023-02-08T10:23:23.783Z,74.55
2023-02-08T10:24:23.711Z,74.10
2023-02-08T10:25:23.701Z,74.00
2023-02-08T10:26:23.680Z,72.75
2023-02-08T10:27:23.669Z,72.33
2023-02-08T10:28:24.580Z,72.53
2023-02-08T10:29:23.672Z,72.75
2023-02-08T10:30:23.706Z,72.92
2023-02-08T10:31:23.708Z,72.71
2023-02-08T10:32:23.628Z,72.30
2023-02-08T10:33:23.641Z,72.19
2023-02-08T10:34:23.613Z,71.67
2023-02-08T10:35:23.592Z,70.31
2023-02-08T10:36:23.611Z,69.86
2023-02-08T10:37:23.576Z,70.28
2023-02-08T10:38:25.004Z,69.86
2023-02-08T10:39:23.563Z,69.65
2023-02-08T10:40:23.540Z,69.96
2023-02-08T10:41:23.563Z,70.14
2023-02-08T10:42:23.524Z,69.93
2023-02-08T10:43:23.670Z,68.99
2023-02-08T10:44:23.542Z,68.57
2023-02-08T10:45:24.808Z,68.57
2023-02-08T10:46:23.475Z,68.44
2023-02-08T10:47:23.472Z,67.92
2023-02-08T10:48:23.475Z,67.68
2023-02-08T10:49:23.443Z,66.22
2023-02-08T10:50:23.438Z,64.83
2023-02-08T10:51:26.173Z,62.62
2023-02-08T10:52:23.415Z,61.65
2023-02-08T10:53:23.435Z,61.72
2023-02-08T10:54:23.393Z,61.07
2023-02-08T10:55:23.391Z,60.94
2023-02-08T10:56:23.376Z,60.19
2023-02-08T10:57:23.375Z,59.33
2023-02-08T10:58:23.402Z,58.78
2023-02-08T10:59:23.345Z,58.98
2023-02-08T11:00:23.341Z,58.34
2023-02-08T11:01:23.400Z,58.11
2023-02-08T11:02:23.323Z,56.34
2023-02-08T11:03:23.323Z,55.79
2023-02-08T11:04:23.330Z,55.46
2023-02-08T11:05:23.288Z,55.15
2023-02-08T11:06:23.267Z,54.39
2023-02-08T11:07:23.293Z,54.39
2023-02-08T11:08:23.276Z,53.96
2023-02-08T11:09:23.237Z,53.85
2023-02-08T11:10:23.228Z,53.62
2023-02-08T11:11:23.239Z,52.38
2023-02-08T11:12:23.227Z,51.55
2023-02-08T11:13:23.216Z,52.17
2023-02-08T11:14:23.265Z,52.69
2023-02-08T11:15:23.180Z,52.38
2023-02-08T11:16:23.305Z,52.15
2023-02-08T11:17:23.158Z,52.77
2023-02-08T11:18:23.143Z,52.67
2023-02-08T11:19:23.157Z,52.15
2023-02-08T11:20:23.150Z,51.81
2023-02-08T11:21:23.126Z,51.71
2023-02-08T11:22:23.111Z,51.28
2023-02-08T11:23:23.102Z,50.76
2023-02-08T11:24:23.101Z,50.65
2023-02-08T11:25:23.090Z,50.45
2023-02-08T11:26:23.064Z,50.84
2023-02-08T11:27:23.064Z,50.32
2023-02-08T11:28:23.105Z,50.40
2023-02-08T11:29:23.077Z,49.99
2023-02-08T11:30:23.329Z,49.76
2023-02-08T11:31:23.074Z,49.34
2023-02-08T11:32:22.996Z,48.29
2023-02-08T11:33:22.997Z,47.67
2023-02-08T11:34:22.999Z,47.65
2023-02-08T11:35:22.983Z,46.41
2023-02-08T11:36:22.970Z,44.66
2023-02-08T11:37:22.948Z,44.35
2023-02-08T11:38:22.939Z,43.01
2023-02-08T11:39:22.956Z,43.52
2023-02-08T11:40:22.947Z,44.66
2023-02-08T11:41:22.909Z,44.45
2023-02-08T11:42:22.901Z,45.46
2023-02-08T11:43:22.900Z,45.56
2023-02-08T11:44:22.908Z,45.36
2023-02-08T11:45:22.859Z,45.98
2023-02-08T11:46:22.898Z,46.28
2023-02-08T11:47:22.843Z,47.09
2023-02-08T11:48:22.841Z,46.58
2023-02-08T11:49:22.843Z,46.37
2023-02-08T11:50:22.824Z,45.75
2023-02-08T11:51:22.805Z,45.01
2023-02-08T11:52:22.792Z,44.90
2023-02-08T11:53:22.795Z,44.90
2023-02-08T11:54:22.795Z,45.11
2023-02-08T11:55:22.764Z,44.70
2023-02-08T11:56:22.812Z,44.70
2023-02-08T11:57:22.744Z,44.18
2023-02-08T11:58:22.739Z,43.26
2023-02-08T11:59:22.740Z,43.57
2023-02-08T12:00:22.744Z,42.74
2023-02-08T12:01:22.769Z,42.74
2023-02-08T12:02:22.751Z,42.94
2023-02-08T12:03:22.709Z,42.93
2023-02-08T12:04:22.683Z,42.31
2023-02-08T12:05:22.659Z,42.00
2023-02-08T12:06:22.702Z,42.10
2023-02-08T12:07:22.644Z,43.21
2023-02-08T12:08:22.634Z,42.29
2023-02-08T12:09:22.637Z,41.77
2023-02-08T12:10:22.602Z,41.35
2023-02-08T12:11:22.592Z,41.14
2023-02-08T12:12:22.602Z,40.93
2023-02-08T12:13:22.569Z,41.45
2023-02-08T12:14:22.580Z,41.35
2023-02-08T12:15:22.633Z,40.91
2023-02-08T12:16:22.603Z,39.99
2023-02-08T12:17:22.533Z,39.89
2023-02-08T12:18:22.519Z,39.17
2023-02-08T12:19:22.530Z,38.85
2023-02-08T12:20:22.508Z,38.85
2023-02-08T12:21:22.485Z,38.45
2023-02-08T12:22:22.488Z,38.24
2023-02-08T12:23:22.478Z,38.24
2023-02-08T12:24:22.505Z,38.34
2023-02-08T12:25:22.435Z,38.04
2023-02-08T12:26:22.514Z,38.34
2023-02-08T12:27:22.417Z,39.48
2023-02-08T12:28:22.474Z,41.03
2023-02-08T12:29:22.421Z,42.08
2023-02-08T12:30:22.402Z,42.31
2023-02-08T12:31:22.553Z,42.21
2023-02-08T12:32:22.372Z,47.45
2023-02-08T12:33:22.372Z,42.74
2023-02-08T12:34:22.394Z,42.85
2023-02-08T12:35:37.325Z,43.38
2023-02-08T12:36:23.359Z,43.27
2023-02-08T12:37:22.318Z,42.35
2023-02-08T12:38:22.306Z,47.60
2023-02-08T12:39:24.671Z,44.62
2023-02-08T12:40:22.286Z,42.99
2023-02-08T12:41:22.285Z,44.43
2023-02-08T12:42:22.257Z,42.68
2023-02-08T12:43:22.247Z,43.11
2023-02-08T12:44:22.278Z,42.49
2023-02-08T12:45:22.229Z,42.49
2023-02-08T12:46:22.282Z,43.32
2023-02-08T12:47:23.047Z,44.56
2023-02-08T12:48:22.207Z,46.10
2023-02-08T12:49:22.206Z,44.57
2023-02-08T12:50:22.176Z,43.85
2023-02-08T12:51:22.163Z,42.20
2023-02-08T12:52:22.177Z,44.57